Highlands Peak, California Weather observations

Data are for observation ending at time listed.
 Day   Time    Ave.   Ave.  Ave.  Vector   Max.   Stn.    Total    Solar   Ave.  
  of    of     Air    Rel.  Wind   Wind    Wind   Baro.  Precip.   Rad.    Soil  
Year   Day     Temp.  Hum.  Speed  Dir.    Gust   Pres.                    Temp. 
2016   (PST)    F      %     mph   deg.    mph     mb.     in.     W/m2     F   
------------------------------------------------------------------------------
  41   20:50   69.4    22    1.6   106      2.1   935.1    0.00       0    62.1
  41   21:00   69.3    21    2.9    97      3.4   935.2    0.00       0    62.0
  41   21:10   69.2    23    1.2   141      2.8   935.2    0.00       0    61.9
  41   21:20   69.0    20    1.6   175      4.1   935.1    0.00       0    61.8
  41   21:30   68.1    19    4.1    39      5.9   935.1    0.00       0    61.6
  41   21:40   67.7    18    3.5    51      5.6   935.1    0.00       0    61.3
  41   21:50   68.1    17    1.9    17      3.5   935.1    0.00       0    61.2
  41   22:00   68.8    17    1.4   336      2.3   935.1    0.00       0    61.1
  41   22:10   69.3    18    1.8   335      2.3   935.1    0.00       0    61.1
  41   22:20   69.6    17    1.1    78      2.6   935.1    0.00       0    61.0
  41   22:30   69.2    18    2.1   136      3.6   935.0    0.00       0    60.9
  41   22:40   69.1    20    3.4   127      4.2   935.0    0.00       0    60.8
  41   22:50   68.7    22    3.7   136      4.1   935.0    0.00       0    60.7
  41   23:00   68.6    22    3.1   140      4.2   935.0    0.00       0    60.5
  41   23:10   68.3    22    4.1   165      4.9   935.0    0.00       0    60.4
  41   23:20   68.4    21    3.0   159      4.3   935.0    0.00       0    60.3
  41   23:30   68.8    21    2.4   140      3.1   935.1    0.00       0    60.2
  41   23:40   67.7    19    3.2    85      5.3   935.0    0.00       0    60.1
  41   23:50   66.9    18    3.7    67      5.2   935.0    0.00       0    59.9
  42    0:00   67.4    16    4.8    52      6.4   935.0    0.00       0    59.7
  42    0:10   67.2    16    5.0    46      6.1   934.9    0.00       0    59.4
  42    0:20   66.9    17    4.7    47      6.8   934.8    0.00       0    59.3
  42    0:30   67.4    16    3.9    54      5.0   934.8    0.00       0    59.1
  42    0:40   68.9    16    1.5    26      3.1   934.8    0.00       0    59.0
  42    0:50   68.0    15    2.2    19      4.3   934.8    0.00       0    59.0
  42    1:00   67.4    16    2.6    29      5.3   934.9    0.00       0    58.8
  42    1:10   67.6    17    1.3    11      2.8   934.9    0.00       0    58.7
  42    1:20   67.6    17    1.8    18      3.7   934.9    0.00       0    58.6
  42    1:30   66.9    18    2.7    44      3.9   934.8    0.00       0    58.5
  42    1:40   66.3    19    3.3    53      4.7   934.8    0.00       0    58.4
  42    1:50   65.8    20    4.1    53      5.2   934.8    0.00       0    58.2
  42    2:00   66.0    20    4.8    44      5.3   934.8    0.00       0    58.1
  42    2:10   65.7    21    4.8    44      5.6   934.8    0.00       0    57.9
  42    2:20   65.8    21    4.2    44      5.1   934.8    0.00       0    57.8
  42    2:30   65.8    21    4.6    52      6.4   934.6    0.00       0    57.8
  42    2:40   65.5    21    5.0    56      6.5   934.6    0.00       0    57.7
  42    2:50   66.0    21    3.9    53      4.9   934.5    0.00       0    57.6
  42    3:00   66.6    20    3.4    61      4.7   934.5    0.00       0    57.5
  42    3:10   66.7    20    1.9    67      3.5   934.5    0.00       0    57.5
  42    3:20   67.8    19    2.0    36      2.7   934.5    0.00       0    57.4
  42    3:30   67.9    19    1.5   357      2.3   934.4    0.00       0    57.3
  42    3:40   67.5    18    2.1    42      3.9   934.4    0.00       0    57.3
  42    3:50   66.5    18    3.4    70      5.0   934.3    0.00       0    57.3
  42    4:00   66.3    19    3.7    69      4.9   934.3    0.00       0    57.3
  42    4:10   66.3    20    2.9    70      3.7   934.3    0.00       0    57.2
  42    4:20   67.3    19    2.0    32      3.4   934.2    0.00       0    57.1
  42    4:30   67.6    20    1.4   331      2.2   934.2    0.00       0    57.0
  42    4:40   67.4    20    1.9    30      3.5   934.1    0.00       0    57.0
  42    4:50   66.5    19    4.9    68      6.7   934.1    0.00       0    56.9
  42    5:00   66.2    19    4.6    68      5.4   934.1    0.00       0    56.9
  42    5:10   67.0    18    2.6    63      3.9   934.1    0.00       0    56.7
  42    5:20   67.9    18    2.2   136      2.9   934.0    0.00       0    56.6
  42    5:30   68.2    18    2.8   263      4.2   934.1    0.00       0    56.6
  42    5:40   67.4    20    3.5   261      4.4   934.2    0.00       0    56.6
  42    5:50   66.8    21    2.4   280      3.9   934.3    0.00       0    56.5
  42    6:00   67.0    20    1.2   287      2.0   934.3    0.00       0    56.5
  42    6:10   66.9    19    2.7    12      3.8   934.3    0.00       0    56.4
  42    6:20   66.5    18    4.1    41      5.8   934.4    0.00       0    56.2
  42    6:30   65.8    19    5.4    56      6.6   934.4    0.00       0    56.1
  42    6:40   65.9    18    4.9    58      6.2   934.4    0.00       0    56.0
  42    6:50   66.2    19    3.8    68      5.4   934.4    0.00       2    56.0
  42    7:00   67.4    17    1.5     5      4.7   934.5    0.00       6    56.0
  42    7:10   67.0    17    1.8   334      4.2   934.6    0.00      10    56.0
  42    7:20   66.9    16    2.4     7      3.8   934.6    0.00      18    55.9
  42    7:30   66.9    16    2.3    38      3.5   934.6    0.00      32    55.8
  42    7:40   66.9    18    2.5   304      4.7   934.7    0.00      59    55.7
  42    7:50   65.1    21    3.1   359      6.5   934.7    0.00      99    55.7
  42    8:00   63.4    23    6.9    55      8.6   934.7    0.00      99    55.7
  42    8:10   64.4    20    5.5    49      8.1   934.7    0.00     111    55.5
  42    8:20   66.6    18    4.1    52      6.2   934.7    0.00     131    55.4
  42    8:30   67.8    17    2.3   354      4.5   934.8    0.00     151    55.3
  42    8:40   66.7    19    3.0   307      8.0   934.9    0.00     174    55.4
  42    8:50   65.8    24    5.4    51      7.8   935.0    0.00     303    55.4
  42    9:00   66.2    26    5.6    46      7.4   935.0    0.00     433    55.4
  42    9:10   68.5    25    2.6    64      5.0   935.1    0.00     463    55.4
  42    9:20   69.8    21    2.8   236      5.0   935.2    0.00     457    55.4
  42    9:30   67.3    23    2.6   259      3.6   935.3    0.00     507    55.5
  42    9:40   67.1    24    2.7   309      5.3   935.4    0.00     538    55.6
  42    9:50   68.5    23    0.9   357      2.0   935.4    0.00     528    55.7
  42   10:00   70.0    21    0.6    10      1.5   935.5    0.00     536    55.8
  42   10:10   68.9    23    1.8   267      3.4   935.6    0.00     594    55.9
  42   10:20   69.2    24    1.0   182      3.6   935.6    0.00     626    56.0
  42   10:30   70.6    26    2.2   200      3.1   935.6    0.00     649    56.2
  42   10:40   70.2    25    2.2   244      3.5   935.5    0.00     665    56.4
  42   10:50   69.4    24    2.3   256      3.7   935.6    0.00     660    56.6
  42   11:00   69.7    24    1.5   239      3.2   935.5    0.00     691    56.8
  42   11:10   71.1    22    2.5   261      5.2   935.5    0.00     703    57.0
  42   11:20   70.4    24    3.1   257      4.6   935.5    0.00     723    57.3
  42   11:30   70.3    26    4.0   261      5.6   935.4    0.00     726    57.5
  42   11:40   69.6    25    2.3   271      5.4   935.4    0.00     744    57.8
  42   11:50   71.6    26    1.4   232      3.7   935.3    0.00     749    58.0
  42   12:00   71.1    27    3.1   262      4.6   935.2    0.00     754    58.3
  42   12:10   70.3    28    3.2   269      5.2   935.2    0.00     755    58.6
  42   12:20   70.3    29    1.5   239      4.3   935.1    0.00     757    58.9
  42   12:30   71.8    29    2.1   233      4.6   935.0    0.00     764    59.1
  42   12:40   70.8    29    1.2   261      3.1   934.8    0.00     620    59.4
  42   12:50   71.8    31    1.7   244      3.5   934.7    0.00     651    59.6
  42   13:00   72.2    25    2.9   266      4.5   934.6    0.00     762    59.9
  42   13:10   72.7    17    3.2   271      5.0   934.5    0.00     754    60.2
  42   13:20   72.5    25    4.6   260      6.7   934.5    0.00     703    60.5
  42   13:30   71.9    30    3.7   257      5.9   934.4    0.00     569    60.8
  42   13:40   71.1    29    3.5   259      4.5   934.3    0.00     423    61.0
  42   13:50   68.8    41    2.0   267      4.2   934.3    0.00     481    61.3
  42   14:00   69.3    40    1.2   129      3.8   934.3    0.00     527    61.5
  42   14:10   71.3    37    1.1    77      2.6   934.2    0.00     582    61.8
  42   14:20   71.6    25    2.4   271      3.8   934.2    0.00     582    62.1
  42   14:30   71.9    15    2.6   272      4.0   934.2    0.00     608    62.3
  42   14:40   73.2    18    3.3   266      5.9   934.2    0.00     638    62.6
  42   14:50   72.9    23    4.5   256      6.8   934.3    0.00     486    62.9
  42   15:00   71.2    30    4.7   256      7.4   934.3    0.00     463    63.2
  42   15:10   70.9    26    3.6   252      6.2   934.5    0.00     447    63.4
  42   15:20   70.1    27    3.4   269      5.0   934.5    0.00     346    63.6
  42   15:30   69.4    26    3.3   270      4.3   934.5    0.00     324    63.8
  42   15:40   69.2    26    1.9   272      3.6   934.5    0.00     329    64.0
  42   15:50   69.9    23    1.4   344      3.3   934.4    0.00     331    64.1
  42   16:00   70.7    23    2.2   277      5.5   934.4    0.00     256    64.3
  42   16:10   68.7    28    2.8   282      5.9   934.5    0.00     232    64.4
  42   16:20   68.2    26    3.3   269      5.3   934.6    0.00     156    64.5
  42   16:30   66.6    26    2.8   315      4.1   934.7    0.00     131    64.6
  42   16:40   66.4    21    3.9     5      4.5   934.6    0.00     103    64.6
  42   16:50   66.9    20    4.5    31      5.5   934.6    0.00     110    64.7
  42   17:00   66.8    23    4.5    40      5.8   934.6    0.00      83    64.6
  42   17:10   66.3    24    5.4    53      7.2   934.6    0.00      62    64.5
  42   17:20   66.9    26    4.8    48      6.5   934.7    0.00      44    64.4
  42   17:30   66.8    26    5.0    53      6.1   934.6    0.00      32    64.2
  42   17:40   67.1    24    4.1    58      5.7   934.6    0.00      13    64.2
  42   17:50   67.8    21    3.8    59      4.6   934.7    0.00       4    64.1
  42   18:00   68.3    17    2.4    48      4.7   934.7    0.00       1    64.1
  42   18:10   68.0    17    1.8   306      3.9   934.8    0.00       0    64.0
  42   18:20   65.7    19    3.9    29      7.3   935.0    0.00       0    64.0
  42   18:30   64.5    18    5.1    33      7.6   935.1    0.00       0    63.8
  42   18:40   64.1    18    5.5    42      7.4   935.1    0.00       0    63.6
  42   18:50   62.9    21    6.0    28      7.5   935.1    0.00       0    63.3
  42   19:00   63.8    22    5.0   340      6.4   935.1    0.00       0    63.2
  42   19:10   63.9    22    4.6   330      6.0   935.1    0.00       0    63.1
  42   19:20   63.5    21    3.3   316      5.0   935.2    0.00       0    63.0
  42   19:30   64.1    22    4.0   326      5.3   935.2    0.00       0    62.9
  42   19:40   64.5    19    4.1   340      5.5   935.2    0.00       0    62.8
  42   19:50   65.9    14    3.3     8      4.9   935.3    0.00       0    62.6
  42   20:00   66.7    12    3.0     9      5.0   935.3    0.00       0    62.3
  42   20:10   67.1    11    3.5   350      6.8   935.3    0.00       0    62.2
  42   20:20   67.2    12    3.6   337      6.1   935.3    0.00       0    62.1
  42   20:30   66.2    15    5.2   324      7.3   935.4    0.00       0    62.0
  42   20:40   66.3    14    4.6   339      7.5   935.4    0.00       0    61.9

Return to Highlands Peak graphs page.


Western Regional Climate Center,wrcc@dri.edu